Time;durP1;ratioP1;P1;durP2;ratioP2;P2;SDS_P1;SDS_P2;PMS_P1;PMS_P2;Temp;Humidity;BMP_temperature;BMP_pressure;BME280_temperature;BME280_humidity;BME280_pressure;Samples;Min_cycle;Max_cycle;Signal;HPM_P1;HPM_P2
2023/10/23 00:02:15;;;;;;;3.80;1.75;;;;;;;9.54;74.54;92535.47;2048888;70;20155;-73
2023/10/23 00:04:55;;;;;;;3.63;1.90;;;;;;;9.29;73.79;92474.94;2048778;70;20151;-74
2023/10/23 00:07:25;;;;;;;3.38;1.73;;;;;;;9.71;73.59;92537.16;2049319;70;20154;-75
2023/10/23 00:09:58;;;;;;;2.63;1.70;;;;;;;9.64;74.20;92533.25;2049291;70;20162;-74
2023/10/23 00:12:25;;;;;;;4.05;1.80;;;;;;;9.64;73.44;92534.00;2048975;70;20577;-74
2023/10/23 00:14:52;;;;;;;2.65;1.60;;;;;;;9.56;75.20;92530.69;2047594;70;20143;-75
2023/10/23 00:17:17;;;;;;;2.35;1.52;;;;;;;9.62;75.41;92533.13;2048713;70;20149;-74
2023/10/23 00:19:43;;;;;;;2.67;1.50;;;;;;;9.54;74.07;92519.31;2048842;70;20142;-75
2023/10/23 00:22:09;;;;;;;4.63;1.40;;;;;;;9.50;75.70;92540.81;2048264;70;20526;-74
2023/10/23 00:24:34;;;;;;;2.78;1.50;;;;;;;9.61;74.44;92540.81;2048964;70;20186;-74
2023/10/23 00:27:00;;;;;;;2.00;1.50;;;;;;;9.47;75.21;92547.66;2048456;70;20158;-76
2023/10/23 00:29:26;;;;;;;4.55;1.70;;;;;;;9.41;75.43;92548.75;2048543;70;20199;-76
2023/10/23 00:32:03;;;;;;;;;;;;;;;;;;;;;
2023/10/23 00:34:33;;;;;;;3.13;1.58;;;;;;;9.45;74.92;92555.97;2049408;70;20218;-73
2023/10/23 00:37:05;;;;;;;3.47;1.75;;;;;;;9.54;74.42;92566.38;2049357;69;20150;-74
2023/10/23 00:39:39;;;;;;;4.10;1.70;;;;;;;9.57;73.90;92562.31;2049167;70;20183;-75
2023/10/23 00:42:12;;;;;;;2.40;1.55;;;;;;;9.57;74.56;92557.44;2048853;70;20147;-73
2023/10/23 00:44:46;;;;;;;5.07;1.45;;;;;;;9.27;75.16;92508.53;2048795;70;20150;-75
2023/10/23 00:47:21;;;;;;;3.00;1.85;;;;;;;9.54;74.94;92550.25;2048857;70;20325;-73
2023/10/23 00:49:51;;;;;;;3.60;1.75;;;;;;;9.48;75.31;92549.13;2049339;70;20131;-73
2023/10/23 00:52:17;;;;;;;3.80;1.50;;;;;;;9.54;75.26;92543.88;2048569;70;20151;-74
2023/10/23 00:54:46;;;;;;;3.58;1.70;;;;;;;9.54;73.31;92541.81;2049789;70;20598;-74
2023/10/23 00:57:16;;;;;;;3.30;1.80;;;;;;;9.47;75.00;92528.72;2049507;70;20135;-74
2023/10/23 00:59:46;;;;;;;3.40;1.70;;;;;;;9.55;75.37;92543.28;2051167;70;20171;-73
2023/10/23 01:02:17;;;;;;;3.42;1.40;;;;;;;9.64;73.81;92547.31;2048830;70;20142;-74
2023/10/23 01:04:49;;;;;;;2.05;1.38;;;;;;;9.66;75.06;92556.59;2051179;70;20150;-73
2023/10/23 01:07:18;;;;;;;2.38;1.55;;;;;;;9.61;75.45;92552.06;2048602;70;20241;-76
2023/10/23 01:09:53;;;;;;;3.00;1.85;;;;;;;8.94;78.51;92561.91;2050816;70;20138;-74
2023/10/23 01:12:23;;;;;;;2.47;1.50;;;;;;;9.29;77.54;92552.84;2048723;70;20238;-74
2023/10/23 01:14:51;;;;;;;3.45;1.60;;;;;;;9.42;76.46;92547.41;2048864;70;20542;-75
2023/10/23 01:17:35;;;;;;;2.20;1.65;;;;;;;9.27;77.37;92559.09;2049229;70;20152;-75
2023/10/23 01:20:03;;;;;;;;;;;;;;;9.33;76.77;92564.34;2051606;70;20165;-74
2023/10/23 01:22:33;;;;;;;1.90;1.50;;;;;;;9.48;75.55;92569.50;2049055;70;20054;-74
2023/10/23 01:25:15;;;;;;;5.43;1.50;;;;;;;9.58;75.32;92566.63;2049407;70;20163;-74
2023/10/23 01:27:46;;;;;;;3.63;1.60;;;;;;;9.61;75.70;92565.38;2052098;70;20123;-73
2023/10/23 01:30:17;;;;;;;2.92;1.60;;;;;;;9.62;75.08;92564.81;2050100;70;20236;-73
2023/10/23 01:32:47;;;;;;;2.47;1.40;;;;;;;9.62;75.19;92562.00;2050206;70;20146;-74
2023/10/23 01:35:15;;;;;;;2.97;1.50;;;;;;;9.66;75.60;92570.66;2049702;70;20139;-74
2023/10/23 01:37:45;;;;;;;2.63;1.70;;;;;;;9.63;74.64;92563.44;2049932;70;20177;-73
2023/10/23 01:40:12;;;;;;;3.97;1.40;;;;;;;9.71;73.27;92554.03;2049769;70;20146;-76
2023/10/23 01:42:43;;;;;;;2.20;1.50;;;;;;;9.65;74.75;92555.13;2049935;70;20563;-73
2023/10/23 01:45:10;;;;;;;2.42;1.63;;;;;;;9.61;75.80;92556.97;2050097;70;20150;-73
2023/10/23 01:47:39;;;;;;;3.85;1.75;;;;;;;9.68;76.07;92551.13;2050323;70;20143;-74
2023/10/23 01:50:09;;;;;;;3.25;1.38;;;;;;;9.65;75.06;92546.69;2052477;70;20154;-73
2023/10/23 01:52:35;;;;;;;3.60;1.30;;;;;;;9.72;75.98;92553.44;2049730;70;20173;-74
2023/10/23 01:55:02;;;;;;;3.67;1.17;;;;;;;9.76;75.22;92542.44;2050577;70;20170;-74
2023/10/23 01:57:28;;;;;;;2.15;1.50;;;;;;;9.75;75.74;92535.34;2052502;70;20284;-73
2023/10/23 01:59:55;;;;;;;2.17;1.55;;;;;;;9.84;73.28;92537.31;2049236;70;20206;-73
2023/10/23 02:02:21;;;;;;;4.28;2.03;;;;;;;9.48;76.42;92546.31;2052128;70;20558;-75
2023/10/23 02:04:50;;;;;;;5.70;1.80;;;;;;;9.69;76.06;92549.03;2049931;70;20142;-73
2023/10/23 02:07:20;;;;;;;2.83;1.75;;;;;;;9.64;76.01;92542.44;2050056;70;20193;-75
2023/10/23 02:09:47;;;;;;;3.28;1.45;;;;;;;9.68;74.74;92548.31;2050098;70;20170;-74
2023/10/23 02:12:14;;;;;;;4.68;1.63;;;;;;;9.75;74.92;92557.09;2049896;70;20146;-73
2023/10/23 02:14:52;;;;;;;4.43;2.17;;;;;;;9.67;75.69;92551.72;2049809;70;20173;-73
2023/10/23 02:17:22;;;;;;;2.88;1.90;;;;;;;9.72;75.01;92539.38;2046651;70;20162;-72
2023/10/23 02:19:48;;;;;;;6.20;2.45;;;;;;;9.71;73.24;92537.91;2049422;70;20162;-73
2023/10/23 02:22:14;;;;;;;4.28;2.55;;;;;;;9.34;76.64;92543.34;2048923;70;20174;-74
2023/10/23 02:24:40;;;;;;;4.35;2.42;;;;;;;9.49;75.82;92542.91;2049685;70;20180;-74
2023/10/23 02:27:06;;;;;;;5.18;2.70;;;;;;;9.48;75.32;92532.25;2046335;70;20173;-74
2023/10/23 02:29:32;;;;;;;3.08;2.08;;;;;;;9.50;75.76;92541.56;2048895;70;20158;-73
2023/10/23 02:31:57;;;;;;;5.20;2.38;;;;;;;9.49;76.22;92542.91;2049261;70;20603;-75
2023/10/23 02:34:23;;;;;;;3.63;2.47;;;;;;;9.54;75.81;92533.38;2049668;70;20123;-76
2023/10/23 02:36:48;;;;;;;4.07;2.63;;;;;;;9.51;76.11;92547.91;2051726;70;20150;-74
2023/10/23 02:39:15;;;;;;;5.25;2.92;;;;;;;9.47;76.37;92547.66;2047739;70;20639;-75
2023/10/23 02:41:42;;;;;;;6.63;2.60;;;;;;;9.49;76.67;92550.59;2051082;70;20142;-74
2023/10/23 02:44:08;;;;;;;5.97;3.38;;;;;;;9.48;76.58;92554.72;2048733;70;20189;-74
2023/10/23 02:46:38;;;;;;;4.20;2.72;;;;;;;9.51;76.32;92556.34;2048958;70;20150;-74
2023/10/23 02:49:04;;;;;;;4.22;2.33;;;;;;;9.07;78.73;92552.94;2048349;70;20613;-74
2023/10/23 02:51:30;;;;;;;3.83;2.30;;;;;;;9.39;76.41;92548.63;2048447;70;20143;-74
2023/10/23 02:53:56;;;;;;;2.60;1.95;;;;;;;9.37;76.46;92551.28;2048053;70;20202;-74
2023/10/23 02:56:22;;;;;;;3.05;2.20;;;;;;;9.25;76.81;92524.50;2048590;70;20142;-77
2023/10/23 02:58:47;;;;;;;4.22;2.35;;;;;;;9.43;76.34;92539.69;2048728;70;20554;-75
2023/10/23 03:01:23;;;;;;;2.97;2.20;;;;;;;9.50;76.85;92538.00;2051099;70;20293;-76
2023/10/23 03:03:50;;;;;;;2.33;1.85;;;;;;;9.52;75.04;92538.84;2048877;70;20304;-75
2023/10/23 03:06:16;;;;;;;3.88;2.20;;;;;;;9.55;75.85;92550.97;2048939;70;20758;-78
2023/10/23 03:08:43;;;;;;;3.47;2.25;;;;;;;9.56;76.12;92552.44;2048755;70;20161;-76
2023/10/23 03:11:09;;;;;;;4.35;2.15;;;;;;;9.55;76.61;92542.53;2048437;70;20705;-76
2023/10/23 03:13:35;;;;;;;3.80;2.40;;;;;;;9.51;76.22;92545.81;2047876;70;20150;-74
2023/10/23 03:16:02;;;;;;;5.80;2.20;;;;;;;9.36;76.77;92549.84;2048545;70;20170;-74
2023/10/23 03:18:29;;;;;;;3.67;1.85;;;;;;;9.48;76.46;92557.53;2047984;70;20147;-74
2023/10/23 03:21:01;;;;;;;3.53;2.25;;;;;;;9.48;76.25;92555.47;2047989;70;20288;-75
2023/10/23 03:23:28;;;;;;;4.28;2.10;;;;;;;9.43;76.97;92557.28;2048463;70;20634;-74
2023/10/23 03:25:54;;;;;;;3.28;2.25;;;;;;;9.36;77.09;92551.91;2047955;70;20514;-75
2023/10/23 03:28:19;;;;;;;3.80;1.98;;;;;;;9.41;76.58;92559.97;2047719;70;20250;-76
2023/10/23 03:30:45;;;;;;;2.40;1.73;;;;;;;9.35;76.61;92554.00;2048279;70;20257;-76
2023/10/23 03:33:11;;;;;;;2.42;1.80;;;;;;;9.36;75.60;92549.09;2047957;70;20151;-76
2023/10/23 03:35:43;;;;;;;5.63;3.58;;;;;;;9.13;78.19;92567.34;2048645;70;20178;-78
2023/10/23 03:38:09;;;;;;;2.92;2.03;;;;;;;9.25;77.22;92563.84;2048484;70;20216;-76
2023/10/23 03:40:34;;;;;;;4.78;2.28;;;;;;;9.28;77.09;92557.75;2047847;70;20150;-75
2023/10/23 03:43:00;;;;;;;4.07;2.10;;;;;;;9.18;77.83;92562.72;2048424;70;20163;-77
2023/10/23 03:45:26;;;;;;;4.22;2.10;;;;;;;9.23;77.61;92569.34;2048493;70;20222;-76
2023/10/23 03:47:52;;;;;;;4.40;2.30;;;;;;;9.30;77.05;92576.78;2048456;70;20408;-74
2023/10/23 03:50:19;;;;;;;4.38;2.85;;;;;;;9.31;76.42;92564.97;2048542;70;20166;-75
2023/10/23 03:52:44;;;;;;;7.03;4.70;;;;;;;9.28;76.97;92562.63;2048589;70;20162;-75
2023/10/23 03:55:10;;;;;;;7.22;5.38;;;;;;;9.19;76.65;92557.84;2049070;70;20145;-77
2023/10/23 03:57:35;;;;;;;6.30;4.40;;;;;;;9.21;77.53;92566.38;2048431;70;20163;-76
2023/10/23 04:00:01;;;;;;;4.07;3.25;;;;;;;9.19;76.63;92569.81;2048627;70;20268;-74
2023/10/23 04:02:27;;;;;;;5.03;3.50;;;;;;;9.25;76.69;92572.25;2048278;70;20186;-75
2023/10/23 04:04:52;;;;;;;6.88;3.60;;;;;;;9.17;77.96;92580.94;2048505;70;20165;-76
2023/10/23 04:07:18;;;;;;;6.32;3.03;;;;;;;9.12;78.03;92553.94;2047994;70;20181;-75
2023/10/23 04:09:43;;;;;;;4.47;3.10;;;;;;;9.23;76.59;92566.53;2048474;70;20606;-77
2023/10/23 04:12:09;;;;;;;4.15;3.20;;;;;;;9.25;76.95;92558.94;2047881;70;20163;-78
2023/10/23 04:14:35;;;;;;;4.68;3.30;;;;;;;9.26;76.92;92562.53;2048309;70;20139;-78
2023/10/23 04:17:00;;;;;;;4.15;3.22;;;;;;;9.24;77.11;92565.19;2048318;70;20178;-74
2023/10/23 04:19:26;;;;;;;5.28;2.60;;;;;;;9.26;76.46;92571.69;2044945;70;20173;-74
2023/10/23 04:21:51;;;;;;;4.78;3.03;;;;;;;9.21;77.15;92586.81;2048480;70;20159;-74
2023/10/23 04:24:17;;;;;;;4.63;3.42;;;;;;;9.29;76.94;92589.38;2048424;70;20209;-77
2023/10/23 04:26:42;;;;;;;7.13;3.65;;;;;;;9.31;75.08;92573.41;2048521;70;20147;-76
2023/10/23 04:29:08;;;;;;;8.18;3.90;;;;;;;9.34;76.58;92560.19;2047812;70;20150;-79
2023/10/23 04:31:34;;;;;;;6.57;3.83;;;;;;;9.33;76.42;92545.41;2048619;70;20269;-77
2023/10/23 04:34:00;;;;;;;5.68;3.30;;;;;;;9.36;76.28;92549.84;2048413;70;20170;-75
2023/10/23 04:36:25;;;;;;;8.05;3.70;;;;;;;9.32;76.14;92540.41;2048800;70;20590;-76
2023/10/23 04:38:51;;;;;;;4.82;3.30;;;;;;;9.36;76.21;92541.41;2048757;70;20300;-75
2023/10/23 04:41:19;;;;;;;7.50;4.22;;;;;;;9.25;77.49;92542.09;2048422;70;20174;-75
2023/10/23 04:43:44;;;;;;;4.68;3.30;;;;;;;9.27;77.09;92535.91;2047666;70;20135;-75
2023/10/23 04:46:10;;;;;;;6.40;3.13;;;;;;;9.29;77.12;92536.00;2048336;70;20154;-77
2023/10/23 04:48:36;;;;;;;5.60;3.20;;;;;;;9.34;77.52;92538.47;2048373;70;20499;-74
2023/10/23 04:51:03;;;;;;;6.55;4.55;;;;;;;9.34;77.59;92534.91;2048559;70;20146;-75
2023/10/23 04:53:29;;;;;;;7.03;4.28;;;;;;;9.38;76.68;92537.97;2048625;70;20145;-75
2023/10/23 04:55:54;;;;;;;7.38;3.70;;;;;;;9.33;76.86;92527.84;2048038;70;20253;-76
2023/10/23 04:58:20;;;;;;;4.88;3.30;;;;;;;9.36;77.07;92538.59;2048229;70;20631;-76
2023/10/23 05:00:46;;;;;;;6.22;4.30;;;;;;;9.09;78.35;92521.44;2048664;70;20135;-76
2023/10/23 05:03:12;;;;;;;6.65;4.20;;;;;;;9.27;78.50;92527.47;2048938;70;20586;-77
2023/10/23 05:05:37;;;;;;;8.65;4.63;;;;;;;9.36;77.35;92530.16;2048930;70;20143;-74
2023/10/23 05:08:03;;;;;;;7.43;4.43;;;;;;;9.24;78.59;92537.81;2049161;70;20142;-74
2023/10/23 05:10:30;;;;;;;7.00;4.00;;;;;;;9.21;77.83;92535.50;2049034;70;20162;-75
2023/10/23 05:12:56;;;;;;;7.75;4.22;;;;;;;9.32;78.14;92546.78;2048314;70;20147;-78
2023/10/23 05:15:22;;;;;;;5.85;4.20;;;;;;;9.34;77.21;92538.47;2048897;70;20170;-76
2023/10/23 05:17:48;;;;;;;6.57;4.63;;;;;;;9.38;77.21;92549.94;2049019;70;20141;-76
2023/10/23 05:20:14;;;;;;;5.80;4.20;;;;;;;9.33;77.55;92551.03;2048721;70;20166;-75
2023/10/23 05:22:40;;;;;;;8.27;4.68;;;;;;;9.27;77.73;92536.63;2048918;70;20526;-75
2023/10/23 05:25:08;;;;;;;6.78;4.10;;;;;;;9.06;78.90;92543.03;2048949;70;20182;-76
2023/10/23 05:27:35;;;;;;;8.13;4.68;;;;;;;9.11;78.60;92536.31;2049005;70;20182;-76
2023/10/23 05:30:03;;;;;;;6.30;5.07;;;;;;;9.24;77.38;92523.78;2048340;70;20135;-74
2023/10/23 05:32:29;;;;;;;7.95;5.90;;;;;;;9.33;76.75;92531.38;2048774;70;20146;-76
2023/10/23 05:34:55;;;;;;;9.88;6.40;;;;;;;9.37;76.29;92533.72;2048222;70;20490;-74
2023/10/23 05:37:20;;;;;;;9.68;4.85;;;;;;;9.36;77.78;92543.47;2048012;70;20146;-75
2023/10/23 05:39:46;;;;;;;5.53;4.30;;;;;;;9.36;77.37;92546.28;2048744;70;20166;-74
2023/10/23 05:42:12;;;;;;;11.38;5.95;;;;;;;9.32;78.57;92546.78;2048100;70;20142;-75
2023/10/23 05:44:37;;;;;;;7.38;5.93;;;;;;;9.30;78.47;92555.09;2048600;70;20157;-78
2023/10/23 05:47:03;;;;;;;11.52;8.68;;;;;;;9.12;79.16;92556.75;2048225;70;20139;-75
2023/10/23 05:49:28;;;;;;;12.27;7.60;;;;;;;9.27;78.07;92556.28;2048833;70;20154;-73
2023/10/23 05:51:54;;;;;;;12.07;8.07;;;;;;;9.34;77.75;92546.88;2048551;70;20138;-74
2023/10/23 05:54:20;;;;;;;17.42;10.55;;;;;;;9.39;77.88;92534.59;2048669;70;20146;-77
2023/10/23 05:56:45;;;;;;;20.73;10.80;;;;;;;9.43;76.95;92545.31;2048882;70;20186;-76
2023/10/23 05:59:11;;;;;;;16.67;10.35;;;;;;;9.44;77.48;92541.19;2048595;70;20139;-76
2023/10/23 06:01:36;;;;;;;13.48;8.95;;;;;;;9.46;77.22;92549.00;2048219;70;20599;-74
2023/10/23 06:04:04;;;;;;;11.18;6.30;;;;;;;9.45;77.90;92551.09;2048198;70;20146;-75
2023/10/23 06:06:30;;;;;;;7.32;4.00;;;;;;;9.48;76.88;92558.28;2051087;70;20570;-75
2023/10/23 06:08:56;;;;;;;7.10;4.32;;;;;;;9.36;78.72;92554.72;2048616;70;20264;-74
2023/10/23 06:11:21;;;;;;;7.72;4.30;;;;;;;9.50;76.74;92557.69;2048817;70;20253;-74
2023/10/23 06:13:47;;;;;;;6.30;4.00;;;;;;;9.53;78.28;92557.22;2048171;70;20217;-74
2023/10/23 06:16:12;;;;;;;10.60;4.07;;;;;;;9.56;77.54;92546.81;2049210;70;20202;-75
2023/10/23 06:18:38;;;;;;;8.55;3.95;;;;;;;9.56;75.08;92558.78;2049040;70;20633;-77
2023/10/23 06:21:06;;;;;;;7.45;4.28;;;;;;;9.13;80.24;92566.63;2049089;70;20185;-76
2023/10/23 06:23:37;;;;;;;8.82;4.15;;;;;;;9.44;79.47;92563.66;2049191;70;20146;-75
2023/10/23 06:26:04;;;;;;;6.95;4.35;;;;;;;9.56;77.79;92572.84;2048523;70;20217;-75
2023/10/23 06:28:30;;;;;;;12.63;5.13;;;;;;;9.69;77.38;92577.13;2048944;70;20159;-77
2023/10/23 06:30:55;;;;;;;8.88;5.43;;;;;;;9.75;77.88;92574.69;2049158;70;20526;-76
2023/10/23 06:33:21;;;;;;;9.57;6.13;;;;;;;9.81;76.87;92577.91;2049143;70;20134;-75
2023/10/23 06:35:57;;;;;;;9.57;6.65;;;;;;;9.83;77.64;92572.38;2048619;70;20629;-77
2023/10/23 06:38:23;;;;;;;9.55;5.88;;;;;;;9.90;77.17;92579.88;2049407;70;20706;-76
2023/10/23 06:40:48;;;;;;;8.65;5.47;;;;;;;9.89;76.36;92575.56;2049470;70;20146;-76
2023/10/23 06:43:14;;;;;;;8.85;6.20;;;;;;;9.57;78.43;92573.56;2048065;70;20150;-75
2023/10/23 06:45:40;;;;;;;7.03;5.38;;;;;;;9.88;77.41;92588.16;2049160;70;20627;-77
2023/10/23 06:48:05;;;;;;;10.90;6.32;;;;;;;9.86;78.60;92567.63;2048745;70;20151;-75
2023/10/23 06:50:31;;;;;;;11.23;6.78;;;;;;;10.01;78.26;92569.97;2049173;70;20142;-74
2023/10/23 06:52:56;;;;;;;10.82;6.30;;;;;;;10.17;76.99;92575.81;2049221;70;20150;-78
2023/10/23 06:55:24;;;;;;;13.77;6.35;;;;;;;10.23;76.43;92561.41;2049168;70;20252;-78
2023/10/23 06:57:50;;;;;;;8.95;6.00;;;;;;;9.78;79.02;92584.00;2048992;70;20166;-78
2023/10/23 07:00:16;;;;;;;9.45;6.68;;;;;;;10.09;78.02;92578.88;2049220;70;20599;-78
2023/10/23 07:02:42;;;;;;;10.82;5.93;;;;;;;10.45;77.24;92599.34;2048614;70;20158;-74
2023/10/23 07:05:07;;;;;;;12.88;6.43;;;;;;;10.47;77.08;92602.25;2049270;70;20294;-75
2023/10/23 07:07:33;;;;;;;11.60;6.53;;;;;;;10.58;76.34;92604.34;2049208;70;20150;-77
2023/10/23 07:09:59;;;;;;;10.18;5.85;;;;;;;10.59;76.04;92607.88;2049330;70;20585;-78
2023/10/23 07:12:25;;;;;;;8.40;5.40;;;;;;;10.43;78.00;92611.19;2049149;70;20139;-77
2023/10/23 07:14:50;;;;;;;11.95;6.65;;;;;;;10.63;76.71;92614.50;2049012;70;20153;-76
2023/10/23 07:17:17;;;;;;;17.33;12.00;;;;;;;10.81;75.51;92609.19;2048557;70;20143;-77
2023/10/23 07:19:43;;;;;;;15.38;10.85;;;;;;;10.69;77.56;92614.84;2049178;70;20162;-76
2023/10/23 07:22:08;;;;;;;12.93;8.90;;;;;;;10.92;76.10;92619.69;2048956;70;20204;-75
2023/10/23 07:24:34;;;;;;;10.98;6.07;;;;;;;11.03;76.15;92609.75;2049061;70;20190;-76
2023/10/23 07:27:00;;;;;;;9.70;6.93;;;;;;;11.13;73.37;92623.66;2049068;70;20143;-78
2023/10/23 07:29:25;;;;;;;16.27;9.95;;;;;;;10.77;77.16;92613.88;2048821;70;20589;-76
2023/10/23 07:31:51;;;;;;;11.10;8.00;;;;;;;11.00;75.02;92619.44;2049225;70;20252;-77
2023/10/23 07:34:16;;;;;;;15.27;7.10;;;;;;;10.82;77.32;92610.66;2049149;70;20150;-76
2023/10/23 07:36:42;;;;;;;8.65;5.85;;;;;;;11.08;76.40;92602.25;2049090;70;20502;-77
2023/10/23 07:39:08;;;;;;;18.27;5.40;;;;;;;11.13;75.55;92603.94;2048561;70;20146;-78
2023/10/23 07:41:34;;;;;;;10.70;6.28;;;;;;;11.32;75.31;92608.56;2049001;70;20187;-78
2023/10/23 07:43:59;;;;;;;8.00;5.60;;;;;;;11.36;75.44;92606.69;2048715;70;20162;-77
2023/10/23 07:46:25;;;;;;;12.30;7.03;;;;;;;11.44;74.72;92603.59;2051165;70;20537;-78
2023/10/23 07:48:50;;;;;;;12.18;7.60;;;;;;;11.48;75.23;92597.44;2049107;70;20171;-74
2023/10/23 07:51:16;;;;;;;11.95;7.68;;;;;;;11.60;73.57;92610.13;2049057;70;20170;-78
2023/10/23 07:53:42;;;;;;;12.98;7.35;;;;;;;11.60;74.30;92612.22;2049094;70;20171;-76
2023/10/23 07:56:07;;;;;;;12.95;7.78;;;;;;;11.58;75.24;92610.00;2048406;70;20154;-78
2023/10/23 07:58:34;;;;;;;11.43;6.85;;;;;;;11.58;74.86;92615.66;2048900;70;20139;-77
2023/10/23 08:01:07;;;;;;;12.32;7.63;;;;;;;11.58;75.10;92606.47;2049000;70;20594;-75
2023/10/23 08:03:34;;;;;;;12.10;7.03;;;;;;;11.75;75.30;92594.72;2048574;70;20146;-77
2023/10/23 08:06:03;;;;;;;10.73;7.03;;;;;;;11.71;74.94;92594.50;2048940;70;20151;-76
2023/10/23 08:08:33;;;;;;;31.02;18.35;;;;;;;11.60;75.87;92598.13;2048926;70;20594;-77
2023/10/23 08:11:00;;;;;;;16.15;10.25;;;;;;;11.91;74.90;92595.66;2049105;70;20201;-77
2023/10/23 08:13:25;;;;;;;54.03;34.65;;;;;;;11.78;76.19;92592.75;2048894;70;20273;-76
2023/10/23 08:15:51;;;;;;;21.02;13.30;;;;;;;12.15;74.88;92599.03;2048984;70;20602;-78
2023/10/23 08:18:17;;;;;;;16.73;10.80;;;;;;;12.37;74.05;92587.44;2048841;70;20254;-76
2023/10/23 08:20:43;;;;;;;16.15;9.27;;;;;;;12.56;72.57;92575.75;2048791;70;20242;-77
2023/10/23 08:23:09;;;;;;;14.10;9.10;;;;;;;12.69;72.24;92560.91;2048977;69;20237;-75
2023/10/23 08:25:34;;;;;;;11.68;7.70;;;;;;;12.78;71.48;92558.47;2049024;70;20621;-75
2023/10/23 08:28:00;;;;;;;7.78;5.25;;;;;;;12.83;70.35;92552.41;2048959;70;20153;-78
2023/10/23 08:30:26;;;;;;;8.88;4.32;;;;;;;13.11;69.58;92546.69;2048948;70;20591;-77
2023/10/23 08:32:51;;;;;;;6.10;4.00;;;;;;;13.31;68.85;92544.16;2049067;70;20249;-78
2023/10/23 08:35:19;;;;;;;4.50;2.72;;;;;;;13.25;67.60;92546.69;2048776;70;20676;-78
2023/10/23 08:37:45;;;;;;;54.85;31.65;;;;;;;12.65;71.94;92534.53;2048853;70;20593;-76
2023/10/23 08:40:11;;;;;;;26.60;16.55;;;;;;;13.23;72.75;92528.25;2049102;70;20166;-76
2023/10/23 08:42:37;;;;;;;8.10;6.05;;;;;;;12.97;72.41;92533.34;2049032;70;20154;-77
2023/10/23 08:45:03;;;;;;;7.45;5.82;;;;;;;13.53;71.14;92550.13;2048963;70;20158;-80
2023/10/23 08:47:29;;;;;;;9.57;5.30;;;;;;;13.50;71.08;92557.06;2049053;70;20530;-77
2023/10/23 08:49:59;;;;;;;7.05;3.40;;;;;;;13.10;69.63;92560.09;2048747;70;20230;-76
2023/10/23 08:52:27;;;;;;;6.60;4.05;;;;;;;13.52;71.03;92563.56;2051012;70;20157;-79
2023/10/23 08:54:54;;;;;;;6.93;3.70;;;;;;;13.60;69.47;92571.69;2051142;70;20209;-76
2023/10/23 08:57:20;;;;;;;4.53;3.38;;;;;;;14.40;69.10;92568.28;2048922;70;20151;-78
2023/10/23 08:59:47;;;;;;;5.53;3.20;;;;;;;14.70;66.51;92559.69;2049134;70;20145;-78
2023/10/23 09:02:13;;;;;;;5.60;3.08;;;;;;;14.54;66.17;92554.06;2049102;70;20165;-77
2023/10/23 09:04:39;;;;;;;4.90;3.20;;;;;;;14.41;66.39;92575.41;2049343;70;20154;-77
2023/10/23 09:07:04;;;;;;;5.35;3.17;;;;;;;14.84;63.98;92573.75;2048735;70;20146;-78
2023/10/23 09:09:30;;;;;;;5.63;3.00;;;;;;;15.32;64.65;92577.19;2045913;70;20589;-78
2023/10/23 09:11:57;;;;;;;2.58;1.88;;;;;;;15.77;62.67;92571.22;2049164;70;20582;-78
2023/10/23 09:14:27;;;;;;;3.53;1.90;;;;;;;15.96;61.37;92564.16;2051265;70;20249;-78
2023/10/23 09:16:55;;;;;;;2.15;1.48;;;;;;;15.62;58.69;92566.31;2049240;70;20150;-79
2023/10/23 09:19:37;;;;;;;2.92;1.60;;;;;;;16.08;59.75;92558.94;2049122;70;20158;-80
2023/10/23 09:22:04;;;;;;;2.53;1.70;;;;;;;16.87;58.42;92543.38;2049507;70;20153;-79
2023/10/23 09:24:30;;;;;;;2.20;1.50;;;;;;;17.28;56.33;92534.81;2049329;70;20218;-79
2023/10/23 09:26:56;;;;;;;3.03;2.40;;;;;;;17.27;56.92;92535.47;2049210;70;20510;-76
2023/10/23 09:29:25;;;;;;;3.58;1.90;;;;;;;17.70;55.37;92536.88;2048165;70;20150;-76
2023/10/23 09:31:53;;;;;;;2.15;1.70;;;;;;;17.57;55.72;92527.22;2048893;70;20143;-76
2023/10/23 09:34:21;;;;;;;2.78;1.65;;;;;;;18.20;53.16;92528.47;2049148;70;20166;-76
2023/10/23 09:36:50;;;;;;;2.00;1.50;;;;;;;18.25;52.82;92530.78;2049068;70;20225;-77
2023/10/23 09:39:17;;;;;;;1.65;1.30;;;;;;;18.40;51.53;92531.91;2051337;70;20143;-77
2023/10/23 09:41:46;;;;;;;2.33;1.40;;;;;;;18.38;51.32;92528.28;2048989;70;20142;-77
2023/10/23 09:44:15;;;;;;;3.33;1.60;;;;;;;18.69;51.52;92518.47;2048725;70;20150;-76
2023/10/23 09:46:45;;;;;;;4.80;1.52;;;;;;;18.49;52.19;92510.78;2048822;70;20150;-76
2023/10/23 09:49:10;;;;;;;2.33;1.30;;;;;;;19.49;51.09;92502.06;2049064;70;20165;-75
2023/10/23 09:51:39;;;;;;;2.35;1.58;;;;;;;19.52;49.85;92503.56;2049478;70;20151;-74
2023/10/23 09:54:20;;;;;;;4.38;1.70;;;;;;;19.28;50.48;92502.94;2049677;70;20209;-77
2023/10/23 09:56:53;;;;;;;2.13;1.70;;;;;;;19.82;49.74;92514.28;2049752;70;20147;-80
2023/10/23 09:59:28;;;;;;;1.73;1.25;;;;;;;18.56;50.09;92533.78;2049664;70;20157;-79
2023/10/23 10:02:00;;;;;;;1.70;1.30;;;;;;;18.27;50.55;92519.41;2051930;70;20218;-78
2023/10/23 10:04:49;;;;;;;5.13;1.35;;;;;;;18.66;49.97;92522.66;2049584;70;20149;-78
2023/10/23 10:07:49;;;;;;;2.28;1.23;;;;;;;18.88;49.58;92519.75;2049413;70;20669;-77
2023/10/23 10:10:15;;;;;;;5.15;1.27;;;;;;;20.96;47.18;92521.75;2046753;70;20131;-76
2023/10/23 10:12:42;;;;;;;1.60;1.05;;;;;;;20.99;44.21;92521.09;2049180;70;20589;-80
2023/10/23 10:15:12;;;;;;;2.65;1.30;;;;;;;20.43;45.72;92514.91;2049415;70;20155;-77
2023/10/23 10:17:39;;;;;;;1.38;1.17;;;;;;;21.41;44.61;92511.16;2048766;70;20143;-80
2023/10/23 10:20:08;;;;;;;3.60;1.50;;;;;;;20.78;46.37;92499.94;2048617;70;20234;-77
2023/10/23 10:22:35;;;;;;;3.75;1.67;;;;;;;21.34;44.90;92496.00;2051605;70;20161;-78
2023/10/23 10:25:04;;;;;;;1.35;1.20;;;;;;;21.30;44.79;92490.91;2049305;70;20515;-79
2023/10/23 10:27:30;;;;;;;1.85;1.38;;;;;;;20.83;46.30;92492.16;2049021;70;20147;-78
2023/10/23 10:29:58;;;;;;;4.85;2.00;;;;;;;19.40;48.35;92476.84;2049120;70;20150;-78
2023/10/23 10:32:24;;;;;;;2.25;1.67;;;;;;;19.75;48.61;92467.00;2049115;70;20618;-81
2023/10/23 10:34:54;;;;;;;3.30;1.60;;;;;;;18.81;49.50;92478.19;2049159;70;20143;-81
2023/10/23 10:37:26;;;;;;;2.92;1.70;;;;;;;18.38;50.52;92474.16;2048697;70;20242;-76
2023/10/23 10:40:03;;;;;;;5.82;1.65;;;;;;;18.02;51.81;92474.53;2049299;69;20223;-78
2023/10/23 10:42:30;;;;;;;4.25;2.30;;;;;;;18.31;50.77;92469.66;2049301;70;20146;-78
2023/10/23 10:45:15;;;;;;;3.92;2.35;;;;;;;18.22;51.07;92482.94;2049357;69;20675;-77
2023/10/23 10:47:53;;;;;;;3.08;1.95;;;;;;;18.51;51.46;92473.81;2049373;69;20198;-77
2023/10/23 10:50:34;;;;;;;4.45;2.00;;;;;;;18.50;51.87;92460.94;2049380;70;20135;-77
2023/10/23 10:53:04;;;;;;;5.72;1.73;;;;;;;18.06;51.27;92442.59;2049088;69;20158;-76
2023/10/23 10:55:30;;;;;;;2.05;1.52;;;;;;;18.08;50.55;92454.75;2049112;69;20151;-75
2023/10/23 10:57:58;;;;;;;4.82;2.13;;;;;;;18.18;51.75;92445.78;2048956;69;20139;-76
2023/10/23 11:00:24;;;;;;;6.53;2.88;;;;;;;18.05;52.45;92441.84;2049503;70;20249;-74
2023/10/23 11:02:49;;;;;;;2.88;2.20;;;;;;;17.69;52.23;92432.94;2050146;70;20146;-74
2023/10/23 11:05:15;;;;;;;6.85;2.97;;;;;;;17.28;52.30;92429.56;2051161;70;20549;-75
2023/10/23 11:07:41;;;;;;;3.47;2.30;;;;;;;17.59;51.95;92426.94;2052463;69;20146;-75
2023/10/23 11:10:08;;;;;;;5.63;2.90;;;;;;;17.83;51.11;92424.13;2052359;69;20138;-77
2023/10/23 11:12:34;;;;;;;5.75;4.20;;;;;;;18.12;51.91;92419.97;2052359;69;20149;-78
2023/10/23 11:15:00;;;;;;;7.03;2.72;;;;;;;18.14;51.66;92417.91;2051817;70;20143;-78
2023/10/23 11:17:25;;;;;;;4.38;2.97;;;;;;;18.09;51.25;92412.75;2052222;69;20142;-76
2023/10/23 11:19:51;;;;;;;3.95;2.45;;;;;;;17.85;51.69;92404.97;2052457;69;20606;-79
2023/10/23 11:22:23;;;;;;;2.10;1.90;;;;;;;18.40;51.05;92403.66;2052188;69;20294;-77
2023/10/23 11:24:49;;;;;;;3.35;2.03;;;;;;;18.88;50.17;92394.25;2052327;69;20178;-77
2023/10/23 11:27:15;;;;;;;2.63;2.03;;;;;;;20.05;48.68;92399.09;2052225;69;20250;-78
2023/10/23 11:29:40;;;;;;;5.40;2.20;;;;;;;21.63;46.13;92404.84;2052227;70;20212;-78
2023/10/23 11:32:07;;;;;;;3.88;1.85;;;;;;;21.07;45.84;92400.31;2054483;69;20236;-78
2023/10/23 11:34:35;;;;;;;2.83;1.70;;;;;;;23.21;43.45;92396.72;2052199;69;20158;-78
2023/10/23 11:37:02;;;;;;;3.75;1.60;;;;;;;23.69;41.43;92404.34;2052604;69;20155;-77
2023/10/23 11:39:29;;;;;;;1.75;1.63;;;;;;;23.48;41.82;92392.66;2054237;69;20407;-76
2023/10/23 11:41:58;;;;;;;2.90;1.80;;;;;;;22.90;42.94;92384.22;2052564;69;20162;-78